createdAt,value
2023-04-12T04:41:55.060Z,98809.79
2023-04-12T04:44:51.934Z,98807.25
2023-04-12T04:47:20.285Z,98804.98
2023-04-12T04:49:52.949Z,98807.70
2023-04-12T04:52:25.362Z,98807.16
2023-04-12T04:54:57.893Z,98809.55
2023-04-12T04:57:31.890Z,98812.48
2023-04-12T05:00:01.269Z,98810.88
2023-04-12T05:02:32.008Z,98814.54
2023-04-12T05:05:04.428Z,98814.52
2023-04-12T05:07:33.610Z,98814.52
2023-04-12T05:10:03.339Z,98816.73
2023-04-12T05:12:32.945Z,98812.86
2023-04-12T05:17:36.769Z,98812.33
2023-04-12T05:20:08.408Z,98811.77
2023-04-12T05:22:37.301Z,98812.41
2023-04-12T05:25:06.628Z,98813.23
2023-04-12T05:27:38.783Z,98813.89
2023-04-12T05:30:09.073Z,98810.94
2023-04-12T05:32:49.096Z,98808.65
2023-04-12T05:39:40.801Z,98801.80
2023-04-12T05:43:30.636Z,98798.42
2023-04-12T05:46:26.030Z,98793.31
2023-04-12T05:49:00.611Z,98790.84
2023-04-12T05:52:06.621Z,98791.70
2023-04-12T05:54:35.649Z,98788.16
2023-04-12T05:57:04.139Z,98785.01
2023-04-12T05:59:39.177Z,98785.48
2023-04-12T06:02:07.580Z,98782.62
2023-04-12T06:07:19.607Z,98780.11
2023-04-12T06:09:48.307Z,98777.52
2023-04-12T06:12:18.192Z,98777.95
2023-04-12T06:14:46.999Z,98779.35
2023-04-12T06:17:15.867Z,98777.95
2023-04-12T06:19:52.680Z,98777.77
2023-04-12T06:22:22.935Z,98772.67
2023-04-12T06:25:08.687Z,98772.27
2023-04-12T06:27:40.567Z,98773.80
2023-04-12T06:30:11.937Z,98773.57
2023-04-12T06:32:40.610Z,98771.58
2023-04-12T06:35:09.739Z,98772.09
2023-04-12T06:37:38.784Z,98769.97
2023-04-12T06:40:08.679Z,98769.60
2023-04-12T06:42:39.151Z,98771.44
2023-04-12T06:45:07.802Z,98769.84
2023-04-12T06:47:38.529Z,98773.44
2023-04-12T06:50:09.745Z,98770.92
2023-04-12T06:52:37.976Z,98769.48
2023-04-12T06:55:07.376Z,98770.80
2023-04-12T06:57:35.659Z,98766.42
2023-04-12T07:00:07.588Z,98767.21
2023-04-12T07:02:39.587Z,98768.38
2023-04-12T07:05:09.994Z,98770.42
2023-04-12T07:07:39.938Z,98772.27
2023-04-12T07:14:53.136Z,98766.52
2023-04-12T07:22:24.026Z,98762.55
2023-04-12T07:28:42.515Z,98762.51
2023-04-12T07:31:47.415Z,98763.05
2023-04-12T07:34:22.087Z,98763.91
2023-04-12T07:36:50.575Z,98765.68
2023-04-12T07:39:18.862Z,98767.27
2023-04-12T07:41:48.551Z,98765.86
2023-04-12T07:44:18.402Z,98771.27
2023-04-12T07:46:48.660Z,98769.02
2023-04-12T07:49:22.361Z,98767.28
2023-04-12T07:51:51.317Z,98770.95
2023-04-12T07:54:22.317Z,98770.98
2023-04-12T07:57:09.470Z,98768.55
2023-04-12T07:59:38.536Z,98762.08
2023-04-12T08:02:25.188Z,98768.73
2023-04-12T08:04:59.820Z,98765.59
2023-04-12T08:07:36.055Z,98766.03
2023-04-12T08:10:04.882Z,98762.66
2023-04-12T08:12:33.542Z,98763.80
2023-04-12T08:15:01.680Z,98762.74
2023-04-12T08:17:30.663Z,98761.68
2023-04-12T08:20:01.589Z,98756.61
2023-04-12T08:22:30.150Z,98752.15
2023-04-12T08:24:58.366Z,98754.33
2023-04-12T08:27:27.173Z,98755.12
2023-04-12T08:29:59.803Z,98755.77
2023-04-12T08:32:30.261Z,98754.93
2023-04-12T08:34:58.385Z,98755.83
2023-04-12T08:37:32.176Z,98757.59
2023-04-12T08:40:05.653Z,98757.95
2023-04-12T08:42:44.205Z,98756.98
2023-04-12T08:45:14.341Z,98756.16
2023-04-12T08:47:43.274Z,98760.08
2023-04-12T08:50:14.233Z,98760.10
2023-04-12T08:52:43.959Z,98759.63
2023-04-12T08:55:13.110Z,98760.28
2023-04-12T08:57:42.364Z,98760.89
2023-04-12T09:00:16.413Z,98763.54
2023-04-12T09:02:48.779Z,98765.85
2023-04-12T09:05:18.905Z,98762.14
2023-04-12T09:07:47.211Z,98755.73
2023-04-12T09:10:33.705Z,98760.38
2023-04-12T09:13:39.055Z,98761.88
2023-04-12T09:16:07.440Z,98761.11
2023-04-12T09:18:51.743Z,98766.83
2023-04-12T09:21:20.035Z,98764.64
2023-04-12T09:24:11.587Z,98762.66
2023-04-12T09:26:44.639Z,98762.25
2023-04-12T09:29:25.198Z,98762.60
2023-04-12T09:32:06.860Z,98760.98
2023-04-12T09:34:37.329Z,98759.16
2023-04-12T09:37:16.476Z,98763.42
2023-04-12T09:40:06.197Z,98758.45
2023-04-12T09:42:36.537Z,98757.89
2023-04-12T09:45:22.235Z,98760.30
2023-04-12T09:47:51.856Z,98757.98
2023-04-12T09:50:24.783Z,98758.05
2023-04-12T09:52:59.280Z,98757.23
2023-04-12T09:55:33.700Z,98755.89
2023-04-12T09:58:04.543Z,98757.89
2023-04-12T10:00:34.708Z,98757.60
2023-04-12T10:03:04.770Z,98759.60
2023-04-12T10:05:35.720Z,98755.88
2023-04-12T10:08:05.777Z,98760.01
2023-04-12T10:10:35.035Z,98757.61
2023-04-12T10:13:03.741Z,98756.43
2023-04-12T10:15:37.012Z,98757.26
2023-04-12T10:18:09.327Z,98755.91
2023-04-12T10:20:37.794Z,98757.48
2023-04-12T10:23:06.669Z,98751.27
2023-04-12T10:25:35.094Z,98753.48
2023-04-12T10:28:23.003Z,98754.10
2023-04-12T10:30:58.269Z,98758.23
2023-04-12T10:33:32.440Z,98753.73
2023-04-12T10:36:11.005Z,98757.17
2023-04-12T10:39:08.446Z,98756.91
2023-04-12T10:41:38.509Z,98755.83
2023-04-12T10:44:24.593Z,98753.17
2023-04-12T10:46:53.793Z,98757.90
2023-04-12T10:49:22.447Z,98754.21
2023-04-12T10:52:13.942Z,98754.15
2023-04-12T10:54:44.902Z,98752.57
2023-04-12T10:57:43.408Z,98749.30
2023-04-12T11:00:12.107Z,98747.20
2023-04-12T11:03:07.699Z,98742.93
2023-04-12T11:06:20.096Z,98735.58
2023-04-12T11:09:37.084Z,98732.05
2023-04-12T11:12:05.701Z,98733.59
2023-04-12T11:14:52.858Z,98729.31
2023-04-12T11:17:27.705Z,98729.36
2023-04-12T11:20:01.216Z,98731.75
2023-04-12T11:22:31.757Z,98728.23
2023-04-12T11:25:01.481Z,98726.54
2023-04-12T11:27:32.445Z,98722.70
2023-04-12T11:30:07.680Z,98723.84
2023-04-12T11:32:41.777Z,98723.00
2023-04-12T11:35:09.896Z,98721.48
2023-04-12T11:37:43.975Z,98724.16
2023-04-12T11:40:12.746Z,98723.70
2023-04-12T11:42:41.174Z,98724.38
2023-04-12T11:45:17.242Z,98721.20
2023-04-12T11:47:46.713Z,98721.17
2023-04-12T11:50:33.412Z,98726.48
2023-04-12T11:53:14.061Z,98730.95
2023-04-12T11:55:47.611Z,98733.41
2023-04-12T11:58:16.886Z,98730.70
2023-04-12T12:00:46.528Z,98730.20
2023-04-12T12:03:14.733Z,98728.56
2023-04-12T12:05:45.378Z,98733.27
2023-04-12T12:08:14.299Z,98728.95
2023-04-12T12:11:04.040Z,98730.41
2023-04-12T12:13:48.214Z,98732.98
2023-04-12T12:16:17.736Z,98732.92
2023-04-12T12:18:50.983Z,98732.23
2023-04-12T12:21:21.868Z,98733.67
2023-04-12T12:23:51.137Z,98730.34
2023-04-12T12:26:24.625Z,98730.27
2023-04-12T12:28:57.109Z,98731.75
2023-04-12T12:31:28.131Z,98729.70
2023-04-12T12:34:00.344Z,98731.24
2023-04-12T12:36:36.213Z,98731.92
2023-04-12T12:39:07.572Z,98733.86
2023-04-12T12:41:36.088Z,98734.16
2023-04-12T12:44:04.875Z,98735.66
2023-04-12T12:46:50.765Z,98734.96
2023-04-12T12:49:21.411Z,98737.18
2023-04-12T12:51:52.183Z,98734.73
2023-04-12T12:54:38.664Z,98732.19
2023-04-12T12:57:08.894Z,98734.91
2023-04-12T12:59:37.698Z,98734.49
2023-04-12T13:02:07.570Z,98736.07
2023-04-12T13:04:38.669Z,98728.58
2023-04-12T13:07:07.831Z,98728.71
2023-04-12T13:09:36.813Z,98730.08
2023-04-12T13:12:10.753Z,98725.02
2023-04-12T13:14:41.946Z,98723.23
2023-04-12T13:17:10.513Z,98717.20
2023-04-12T13:19:45.791Z,98716.41
2023-04-12T13:22:14.809Z,98717.55
2023-04-12T13:24:43.610Z,98717.23
